sensor_id;sensor_type;location;lat;lon;timestamp;P1;durP1;ratioP1;P2;durP2;ratioP2
30185;SDS011;31152;49.190;8.122;2023-08-21T00:01:53;6.90;;;4.97;;
30185;SDS011;31152;49.190;8.122;2023-08-21T00:04:23;14.43;;;5.60;;
30185;SDS011;31152;49.190;8.122;2023-08-21T00:06:49;9.27;;;5.13;;
30185;SDS011;31152;49.190;8.122;2023-08-21T00:09:17;8.88;;;5.43;;
30185;SDS011;31152;49.190;8.122;2023-08-21T00:11:44;7.90;;;5.47;;
30185;SDS011;31152;49.190;8.122;2023-08-21T00:14:10;8.10;;;5.93;;
30185;SDS011;31152;49.190;8.122;2023-08-21T00:16:42;11.05;;;5.38;;
30185;SDS011;31152;49.190;8.122;2023-08-21T00:19:09;12.90;;;5.45;;
30185;SDS011;31152;49.190;8.122;2023-08-21T00:21:36;10.68;;;5.63;;
30185;SDS011;31152;49.190;8.122;2023-08-21T00:24:02;9.98;;;5.57;;
30185;SDS011;31152;49.190;8.122;2023-08-21T00:26:29;9.30;;;5.68;;
30185;SDS011;31152;49.190;8.122;2023-08-21T00:28:58;8.07;;;5.88;;
30185;SDS011;31152;49.190;8.122;2023-08-21T00:31:25;10.90;;;5.82;;
30185;SDS011;31152;49.190;8.122;2023-08-21T00:33:52;10.80;;;5.97;;
30185;SDS011;31152;49.190;8.122;2023-08-21T00:36:20;11.30;;;6.13;;
30185;SDS011;31152;49.190;8.122;2023-08-21T00:38:47;9.85;;;5.80;;
30185;SDS011;31152;49.190;8.122;2023-08-21T00:41:14;13.48;;;6.45;;
30185;SDS011;31152;49.190;8.122;2023-08-21T00:43:41;9.43;;;5.82;;
30185;SDS011;31152;49.190;8.122;2023-08-21T00:46:08;11.48;;;6.18;;
30185;SDS011;31152;49.190;8.122;2023-08-21T00:48:34;12.93;;;6.00;;
30185;SDS011;31152;49.190;8.122;2023-08-21T00:51:02;12.07;;;5.75;;
30185;SDS011;31152;49.190;8.122;2023-08-21T00:53:30;13.48;;;5.90;;
30185;SDS011;31152;49.190;8.122;2023-08-21T00:55:56;12.43;;;6.22;;
30185;SDS011;31152;49.190;8.122;2023-08-21T00:58:23;9.68;;;5.65;;
30185;SDS011;31152;49.190;8.122;2023-08-21T01:00:52;8.70;;;5.72;;
30185;SDS011;31152;49.190;8.122;2023-08-21T01:03:19;7.00;;;5.30;;
30185;SDS011;31152;49.190;8.122;2023-08-21T01:05:47;8.05;;;5.75;;
30185;SDS011;31152;49.190;8.122;2023-08-21T01:10:52;12.75;;;5.72;;
30185;SDS011;31152;49.190;8.122;2023-08-21T01:16:26;13.13;;;5.90;;
30185;SDS011;31152;49.190;8.122;2023-08-21T01:18:55;8.70;;;5.70;;
30185;SDS011;31152;49.190;8.122;2023-08-21T01:21:23;7.82;;;6.10;;
30185;SDS011;31152;49.190;8.122;2023-08-21T01:23:50;12.52;;;5.85;;
30185;SDS011;31152;49.190;8.122;2023-08-21T01:26:19;11.10;;;6.10;;
30185;SDS011;31152;49.190;8.122;2023-08-21T01:28:49;10.75;;;5.60;;
30185;SDS011;31152;49.190;8.122;2023-08-21T01:31:21;13.23;;;6.53;;
30185;SDS011;31152;49.190;8.122;2023-08-21T01:33:54;11.55;;;5.47;;
30185;SDS011;31152;49.190;8.122;2023-08-21T01:36:24;7.45;;;5.68;;
30185;SDS011;31152;49.190;8.122;2023-08-21T01:38:54;9.27;;;6.22;;
30185;SDS011;31152;49.190;8.122;2023-08-21T01:41:24;13.48;;;5.97;;
30185;SDS011;31152;49.190;8.122;2023-08-21T01:43:51;10.23;;;5.90;;
30185;SDS011;31152;49.190;8.122;2023-08-21T01:46:18;10.70;;;6.20;;
30185;SDS011;31152;49.190;8.122;2023-08-21T01:48:45;9.80;;;6.10;;
30185;SDS011;31152;49.190;8.122;2023-08-21T01:51:12;9.02;;;5.50;;
30185;SDS011;31152;49.190;8.122;2023-08-21T01:53:41;9.88;;;6.65;;
30185;SDS011;31152;49.190;8.122;2023-08-21T01:56:08;11.10;;;5.82;;
30185;SDS011;31152;49.190;8.122;2023-08-21T01:58:34;9.10;;;5.75;;
30185;SDS011;31152;49.190;8.122;2023-08-21T02:01:01;9.95;;;5.90;;
30185;SDS011;31152;49.190;8.122;2023-08-21T02:03:28;11.75;;;6.28;;
30185;SDS011;31152;49.190;8.122;2023-08-21T02:05:57;10.50;;;5.63;;
30185;SDS011;31152;49.190;8.122;2023-08-21T02:08:30;11.38;;;6.22;;
30185;SDS011;31152;49.190;8.122;2023-08-21T02:11:01;8.50;;;5.90;;
30185;SDS011;31152;49.190;8.122;2023-08-21T02:13:28;9.15;;;6.20;;
30185;SDS011;31152;49.190;8.122;2023-08-21T02:15:59;10.18;;;6.18;;
30185;SDS011;31152;49.190;8.122;2023-08-21T02:18:26;10.35;;;6.00;;
30185;SDS011;31152;49.190;8.122;2023-08-21T02:20:52;10.93;;;6.57;;
30185;SDS011;31152;49.190;8.122;2023-08-21T02:23:19;17.05;;;6.78;;
30185;SDS011;31152;49.190;8.122;2023-08-21T02:25:46;8.60;;;6.68;;
30185;SDS011;31152;49.190;8.122;2023-08-21T02:28:15;8.38;;;5.80;;
30185;SDS011;31152;49.190;8.122;2023-08-21T02:30:44;9.90;;;6.80;;
30185;SDS011;31152;49.190;8.122;2023-08-21T02:33:11;8.00;;;6.13;;
30185;SDS011;31152;49.190;8.122;2023-08-21T02:35:39;11.27;;;5.97;;
30185;SDS011;31152;49.190;8.122;2023-08-21T02:38:08;15.18;;;6.22;;
30185;SDS011;31152;49.190;8.122;2023-08-21T02:40:34;9.60;;;6.25;;
30185;SDS011;31152;49.190;8.122;2023-08-21T02:43:04;10.85;;;6.25;;
30185;SDS011;31152;49.190;8.122;2023-08-21T02:45:31;10.93;;;6.10;;
30185;SDS011;31152;49.190;8.122;2023-08-21T02:47:58;12.48;;;6.22;;
30185;SDS011;31152;49.190;8.122;2023-08-21T02:50:25;13.07;;;6.50;;
30185;SDS011;31152;49.190;8.122;2023-08-21T02:52:52;9.85;;;6.10;;
30185;SDS011;31152;49.190;8.122;2023-08-21T02:55:18;11.27;;;6.28;;
30185;SDS011;31152;49.190;8.122;2023-08-21T02:57:46;11.63;;;6.07;;
30185;SDS011;31152;49.190;8.122;2023-08-21T03:00:16;11.07;;;6.18;;
30185;SDS011;31152;49.190;8.122;2023-08-21T03:02:42;9.90;;;6.18;;
30185;SDS011;31152;49.190;8.122;2023-08-21T03:05:12;11.63;;;6.38;;
30185;SDS011;31152;49.190;8.122;2023-08-21T03:07:40;8.38;;;6.18;;
30185;SDS011;31152;49.190;8.122;2023-08-21T03:10:09;11.68;;;6.00;;
30185;SDS011;31152;49.190;8.122;2023-08-21T03:12:36;12.13;;;6.40;;
30185;SDS011;31152;49.190;8.122;2023-08-21T03:15:07;10.75;;;6.40;;
30185;SDS011;31152;49.190;8.122;2023-08-21T03:17:34;9.40;;;6.07;;
30185;SDS011;31152;49.190;8.122;2023-08-21T03:20:04;7.45;;;5.75;;
30185;SDS011;31152;49.190;8.122;2023-08-21T03:22:31;13.07;;;6.82;;
30185;SDS011;31152;49.190;8.122;2023-08-21T03:24:58;12.55;;;6.75;;
30185;SDS011;31152;49.190;8.122;2023-08-21T03:27:25;11.32;;;6.53;;
30185;SDS011;31152;49.190;8.122;2023-08-21T03:29:54;11.13;;;6.93;;
30185;SDS011;31152;49.190;8.122;2023-08-21T03:32:27;10.73;;;7.05;;
30185;SDS011;31152;49.190;8.122;2023-08-21T03:34:53;12.45;;;6.60;;
30185;SDS011;31152;49.190;8.122;2023-08-21T03:37:20;10.77;;;6.40;;
30185;SDS011;31152;49.190;8.122;2023-08-21T03:39:47;11.32;;;6.50;;
30185;SDS011;31152;49.190;8.122;2023-08-21T03:42:14;10.75;;;6.32;;
30185;SDS011;31152;49.190;8.122;2023-08-21T03:44:40;9.40;;;6.68;;
30185;SDS011;31152;49.190;8.122;2023-08-21T03:47:10;12.63;;;6.70;;
30185;SDS011;31152;49.190;8.122;2023-08-21T03:49:40;9.63;;;6.57;;
30185;SDS011;31152;49.190;8.122;2023-08-21T03:52:06;11.77;;;7.05;;
30185;SDS011;31152;49.190;8.122;2023-08-21T03:54:33;11.15;;;6.95;;
30185;SDS011;31152;49.190;8.122;2023-08-21T03:57:02;11.15;;;6.72;;
30185;SDS011;31152;49.190;8.122;2023-08-21T03:59:29;9.25;;;6.47;;
30185;SDS011;31152;49.190;8.122;2023-08-21T04:01:58;13.32;;;6.38;;
30185;SDS011;31152;49.190;8.122;2023-08-21T04:04:25;12.15;;;6.68;;
30185;SDS011;31152;49.190;8.122;2023-08-21T04:06:52;11.60;;;6.72;;
30185;SDS011;31152;49.190;8.122;2023-08-21T04:09:18;13.05;;;7.07;;
30185;SDS011;31152;49.190;8.122;2023-08-21T04:11:45;9.65;;;6.65;;
30185;SDS011;31152;49.190;8.122;2023-08-21T04:14:12;10.52;;;7.15;;
30185;SDS011;31152;49.190;8.122;2023-08-21T04:16:39;12.60;;;7.32;;
30185;SDS011;31152;49.190;8.122;2023-08-21T04:19:05;10.18;;;6.72;;
30185;SDS011;31152;49.190;8.122;2023-08-21T04:21:32;9.40;;;6.65;;
30185;SDS011;31152;49.190;8.122;2023-08-21T04:24:01;10.77;;;6.60;;
30185;SDS011;31152;49.190;8.122;2023-08-21T04:26:30;10.10;;;6.72;;
30185;SDS011;31152;49.190;8.122;2023-08-21T04:28:57;13.82;;;7.10;;
30185;SDS011;31152;49.190;8.122;2023-08-21T04:31:23;10.68;;;7.22;;
30185;SDS011;31152;49.190;8.122;2023-08-21T04:33:50;13.10;;;7.32;;
30185;SDS011;31152;49.190;8.122;2023-08-21T04:36:17;11.48;;;7.10;;
30185;SDS011;31152;49.190;8.122;2023-08-21T04:38:44;11.93;;;7.13;;
30185;SDS011;31152;49.190;8.122;2023-08-21T04:41:13;12.50;;;6.68;;
30185;SDS011;31152;49.190;8.122;2023-08-21T04:43:40;13.32;;;7.22;;
30185;SDS011;31152;49.190;8.122;2023-08-21T04:46:07;10.85;;;7.10;;
30185;SDS011;31152;49.190;8.122;2023-08-21T04:48:34;10.35;;;6.57;;
30185;SDS011;31152;49.190;8.122;2023-08-21T04:51:01;11.50;;;7.05;;
30185;SDS011;31152;49.190;8.122;2023-08-21T04:53:28;10.38;;;7.05;;
30185;SDS011;31152;49.190;8.122;2023-08-21T04:55:55;15.00;;;7.05;;
30185;SDS011;31152;49.190;8.122;2023-08-21T04:58:27;8.52;;;7.15;;
30185;SDS011;31152;49.190;8.122;2023-08-21T05:00:54;10.88;;;7.10;;
30185;SDS011;31152;49.190;8.122;2023-08-21T05:03:21;10.20;;;6.63;;
30185;SDS011;31152;49.190;8.122;2023-08-21T05:05:54;12.13;;;6.65;;
30185;SDS011;31152;49.190;8.122;2023-08-21T05:08:25;9.38;;;6.65;;
30185;SDS011;31152;49.190;8.122;2023-08-21T05:10:58;14.52;;;6.30;;
30185;SDS011;31152;49.190;8.122;2023-08-21T05:13:26;11.20;;;7.40;;
30185;SDS011;31152;49.190;8.122;2023-08-21T05:15:54;10.00;;;6.90;;
30185;SDS011;31152;49.190;8.122;2023-08-21T05:18:22;15.15;;;7.18;;
30185;SDS011;31152;49.190;8.122;2023-08-21T05:20:53;8.85;;;7.25;;
30185;SDS011;31152;49.190;8.122;2023-08-21T05:23:21;10.88;;;7.07;;
30185;SDS011;31152;49.190;8.122;2023-08-21T05:25:48;16.63;;;7.05;;
30185;SDS011;31152;49.190;8.122;2023-08-21T05:28:15;12.50;;;6.53;;
30185;SDS011;31152;49.190;8.122;2023-08-21T05:30:42;12.30;;;6.63;;
30185;SDS011;31152;49.190;8.122;2023-08-21T05:33:09;10.75;;;7.32;;
30185;SDS011;31152;49.190;8.122;2023-08-21T05:35:38;10.75;;;6.78;;
30185;SDS011;31152;49.190;8.122;2023-08-21T05:38:05;15.98;;;7.30;;
30185;SDS011;31152;49.190;8.122;2023-08-21T05:40:32;13.25;;;7.43;;
30185;SDS011;31152;49.190;8.122;2023-08-21T05:42:59;12.02;;;6.47;;
30185;SDS011;31152;49.190;8.122;2023-08-21T05:45:25;11.07;;;7.25;;
30185;SDS011;31152;49.190;8.122;2023-08-21T05:47:53;16.25;;;6.68;;
30185;SDS011;31152;49.190;8.122;2023-08-21T05:50:21;10.35;;;6.90;;
30185;SDS011;31152;49.190;8.122;2023-08-21T05:52:48;16.20;;;7.63;;
30185;SDS011;31152;49.190;8.122;2023-08-21T05:55:17;10.70;;;6.85;;
30185;SDS011;31152;49.190;8.122;2023-08-21T05:57:44;15.00;;;7.55;;
30185;SDS011;31152;49.190;8.122;2023-08-21T06:00:11;13.90;;;8.32;;
30185;SDS011;31152;49.190;8.122;2023-08-21T06:02:39;15.13;;;7.47;;
30185;SDS011;31152;49.190;8.122;2023-08-21T06:05:11;17.50;;;8.38;;
30185;SDS011;31152;49.190;8.122;2023-08-21T06:07:38;14.23;;;8.00;;
30185;SDS011;31152;49.190;8.122;2023-08-21T06:10:09;13.27;;;8.32;;
30185;SDS011;31152;49.190;8.122;2023-08-21T06:12:39;12.00;;;7.53;;
30185;SDS011;31152;49.190;8.122;2023-08-21T06:15:07;16.25;;;9.02;;
30185;SDS011;31152;49.190;8.122;2023-08-21T06:17:38;16.85;;;9.55;;
30185;SDS011;31152;49.190;8.122;2023-08-21T06:20:05;13.40;;;9.75;;
30185;SDS011;31152;49.190;8.122;2023-08-21T06:22:34;15.10;;;10.18;;
30185;SDS011;31152;49.190;8.122;2023-08-21T06:25:02;18.52;;;9.27;;
30185;SDS011;31152;49.190;8.122;2023-08-21T06:27:29;11.55;;;8.48;;
30185;SDS011;31152;49.190;8.122;2023-08-21T06:30:17;149.77;;;29.30;;
30185;SDS011;31152;49.190;8.122;2023-08-21T06:32:44;23.10;;;10.45;;
30185;SDS011;31152;49.190;8.122;2023-08-21T06:35:11;13.15;;;9.15;;
30185;SDS011;31152;49.190;8.122;2023-08-21T06:37:40;16.33;;;8.57;;
30185;SDS011;31152;49.190;8.122;2023-08-21T06:40:07;12.18;;;8.52;;
30185;SDS011;31152;49.190;8.122;2023-08-21T06:42:34;17.20;;;9.13;;
30185;SDS011;31152;49.190;8.122;2023-08-21T06:45:04;24.95;;;9.98;;
30185;SDS011;31152;49.190;8.122;2023-08-21T06:47:32;14.30;;;9.65;;
30185;SDS011;31152;49.190;8.122;2023-08-21T06:49:58;14.23;;;9.23;;
30185;SDS011;31152;49.190;8.122;2023-08-21T06:52:26;10.30;;;8.90;;
30185;SDS011;31152;49.190;8.122;2023-08-21T06:54:53;12.20;;;7.93;;
30185;SDS011;31152;49.190;8.122;2023-08-21T06:57:20;12.68;;;10.77;;
30185;SDS011;31152;49.190;8.122;2023-08-21T06:59:46;10.75;;;8.27;;
30185;SDS011;31152;49.190;8.122;2023-08-21T07:02:13;15.68;;;8.70;;
30185;SDS011;31152;49.190;8.122;2023-08-21T07:04:40;12.13;;;8.73;;
30185;SDS011;31152;49.190;8.122;2023-08-21T07:07:07;11.63;;;8.30;;
30185;SDS011;31152;49.190;8.122;2023-08-21T07:09:34;9.95;;;7.80;;
30185;SDS011;31152;49.190;8.122;2023-08-21T07:12:00;14.82;;;9.10;;
30185;SDS011;31152;49.190;8.122;2023-08-21T07:14:30;13.27;;;9.05;;
30185;SDS011;31152;49.190;8.122;2023-08-21T07:16:57;10.38;;;8.00;;
30185;SDS011;31152;49.190;8.122;2023-08-21T07:19:24;12.90;;;8.38;;
30185;SDS011;31152;49.190;8.122;2023-08-21T07:21:53;10.45;;;8.20;;
30185;SDS011;31152;49.190;8.122;2023-08-21T07:24:20;10.20;;;8.05;;
30185;SDS011;31152;49.190;8.122;2023-08-21T07:26:49;8.88;;;7.80;;
30185;SDS011;31152;49.190;8.122;2023-08-21T07:29:16;10.98;;;7.43;;
30185;SDS011;31152;49.190;8.122;2023-08-21T07:31:43;10.80;;;7.80;;
30185;SDS011;31152;49.190;8.122;2023-08-21T07:34:10;12.60;;;7.68;;
30185;SDS011;31152;49.190;8.122;2023-08-21T07:36:36;11.13;;;7.72;;
30185;SDS011;31152;49.190;8.122;2023-08-21T07:39:03;12.57;;;7.75;;
30185;SDS011;31152;49.190;8.122;2023-08-21T07:41:30;11.32;;;7.68;;
30185;SDS011;31152;49.190;8.122;2023-08-21T07:43:57;8.15;;;6.78;;
30185;SDS011;31152;49.190;8.122;2023-08-21T07:46:24;14.88;;;7.60;;
30185;SDS011;31152;49.190;8.122;2023-08-21T07:48:53;18.17;;;7.43;;
30185;SDS011;31152;49.190;8.122;2023-08-21T07:51:22;12.02;;;7.43;;
30185;SDS011;31152;49.190;8.122;2023-08-21T07:53:51;9.30;;;7.68;;
30185;SDS011;31152;49.190;8.122;2023-08-21T07:56:23;11.90;;;6.90;;
30185;SDS011;31152;49.190;8.122;2023-08-21T07:58:50;24.08;;;7.13;;
30185;SDS011;31152;49.190;8.122;2023-08-21T08:01:17;17.33;;;7.28;;
30185;SDS011;31152;49.190;8.122;2023-08-21T08:03:44;11.65;;;8.15;;
30185;SDS011;31152;49.190;8.122;2023-08-21T08:06:13;11.25;;;7.15;;
30185;SDS011;31152;49.190;8.122;2023-08-21T08:08:43;10.35;;;7.15;;
30185;SDS011;31152;49.190;8.122;2023-08-21T08:11:10;9.43;;;7.57;;
30185;SDS011;31152;49.190;8.122;2023-08-21T08:13:36;12.38;;;6.95;;
30185;SDS011;31152;49.190;8.122;2023-08-21T08:16:03;10.52;;;7.07;;
30185;SDS011;31152;49.190;8.122;2023-08-21T08:18:30;9.27;;;6.90;;
30185;SDS011;31152;49.190;8.122;2023-08-21T08:20:59;7.65;;;6.78;;
30185;SDS011;31152;49.190;8.122;2023-08-21T08:23:28;10.60;;;7.18;;
30185;SDS011;31152;49.190;8.122;2023-08-21T08:25:55;9.90;;;7.22;;
30185;SDS011;31152;49.190;8.122;2023-08-21T08:28:24;8.30;;;6.88;;
30185;SDS011;31152;49.190;8.122;2023-08-21T08:30:53;10.85;;;7.03;;
30185;SDS011;31152;49.190;8.122;2023-08-21T08:33:20;8.93;;;6.72;;
30185;SDS011;31152;49.190;8.122;2023-08-21T08:35:47;12.55;;;6.90;;
30185;SDS011;31152;49.190;8.122;2023-08-21T08:38:15;8.82;;;6.03;;
30185;SDS011;31152;49.190;8.122;2023-08-21T08:40:46;17.23;;;7.35;;
30185;SDS011;31152;49.190;8.122;2023-08-21T08:43:15;18.42;;;8.60;;
30185;SDS011;31152;49.190;8.122;2023-08-21T08:45:44;8.00;;;6.90;;
30185;SDS011;31152;49.190;8.122;2023-08-21T08:48:14;10.05;;;6.55;;
30185;SDS011;31152;49.190;8.122;2023-08-21T08:50:42;10.93;;;6.82;;
30185;SDS011;31152;49.190;8.122;2023-08-21T08:53:12;9.00;;;5.80;;
30185;SDS011;31152;49.190;8.122;2023-08-21T08:55:43;9.65;;;6.65;;
30185;SDS011;31152;49.190;8.122;2023-08-21T08:58:13;10.82;;;6.28;;
30185;SDS011;31152;49.190;8.122;2023-08-21T09:00:40;11.23;;;6.55;;
30185;SDS011;31152;49.190;8.122;2023-08-21T09:03:07;14.18;;;6.57;;
30185;SDS011;31152;49.190;8.122;2023-08-21T09:05:36;9.10;;;6.20;;
30185;SDS011;31152;49.190;8.122;2023-08-21T09:10:37;7.20;;;5.97;;
30185;SDS011;31152;49.190;8.122;2023-08-21T09:13:12;11.98;;;6.38;;
30185;SDS011;31152;49.190;8.122;2023-08-21T09:15:40;8.55;;;6.30;;
30185;SDS011;31152;49.190;8.122;2023-08-21T09:18:09;7.97;;;6.18;;
30185;SDS011;31152;49.190;8.122;2023-08-21T09:20:37;12.57;;;6.80;;
30185;SDS011;31152;49.190;8.122;2023-08-21T09:23:04;10.70;;;5.90;;
30185;SDS011;31152;49.190;8.122;2023-08-21T09:25:38;7.25;;;5.80;;
30185;SDS011;31152;49.190;8.122;2023-08-21T09:28:05;8.80;;;6.22;;
30185;SDS011;31152;49.190;8.122;2023-08-21T09:30:46;8.77;;;5.43;;
30185;SDS011;31152;49.190;8.122;2023-08-21T09:33:18;9.98;;;5.47;;
30185;SDS011;31152;49.190;8.122;2023-08-21T09:35:52;8.38;;;5.50;;
30185;SDS011;31152;49.190;8.122;2023-08-21T09:38:20;8.75;;;5.18;;
30185;SDS011;31152;49.190;8.122;2023-08-21T09:40:51;9.02;;;5.50;;
30185;SDS011;31152;49.190;8.122;2023-08-21T09:43:23;9.68;;;5.30;;
30185;SDS011;31152;49.190;8.122;2023-08-21T09:45:51;11.68;;;5.00;;
30185;SDS011;31152;49.190;8.122;2023-08-21T09:48:22;9.35;;;4.90;;
30185;SDS011;31152;49.190;8.122;2023-08-21T09:50:52;7.57;;;5.03;;
30185;SDS011;31152;49.190;8.122;2023-08-21T09:53:22;5.80;;;4.43;;
30185;SDS011;31152;49.190;8.122;2023-08-21T09:55:53;5.35;;;4.47;;
30185;SDS011;31152;49.190;8.122;2023-08-21T09:58:21;8.52;;;5.10;;
30185;SDS011;31152;49.190;8.122;2023-08-21T10:00:49;9.57;;;5.22;;
30185;SDS011;31152;49.190;8.122;2023-08-21T10:03:18;8.55;;;4.95;;
30185;SDS011;31152;49.190;8.122;2023-08-21T10:05:47;8.30;;;5.32;;
30185;SDS011;31152;49.190;8.122;2023-08-21T10:08:19;10.98;;;5.20;;
30185;SDS011;31152;49.190;8.122;2023-08-21T10:10:50;7.07;;;4.72;;
30185;SDS011;31152;49.190;8.122;2023-08-21T10:13:17;7.32;;;4.85;;
30185;SDS011;31152;49.190;8.122;2023-08-21T10:15:44;5.90;;;5.03;;
30185;SDS011;31152;49.190;8.122;2023-08-21T10:18:21;12.30;;;5.32;;
30185;SDS011;31152;49.190;8.122;2023-08-21T10:20:52;6.18;;;4.78;;
30185;SDS011;31152;49.190;8.122;2023-08-21T10:23:25;9.15;;;4.55;;
30185;SDS011;31152;49.190;8.122;2023-08-21T10:25:55;8.50;;;4.68;;
30185;SDS011;31152;49.190;8.122;2023-08-21T10:28:43;6.53;;;4.80;;
30185;SDS011;31152;49.190;8.122;2023-08-21T10:34:07;5.95;;;4.55;;
30185;SDS011;31152;49.190;8.122;2023-08-21T10:39:20;12.30;;;4.35;;
30185;SDS011;31152;49.190;8.122;2023-08-21T10:41:59;11.40;;;4.57;;
30185;SDS011;31152;49.190;8.122;2023-08-21T10:47:15;10.57;;;5.18;;
30185;SDS011;31152;49.190;8.122;2023-08-21T10:49:44;6.30;;;5.05;;
30185;SDS011;31152;49.190;8.122;2023-08-21T10:52:11;9.93;;;4.55;;
30185;SDS011;31152;49.190;8.122;2023-08-21T10:54:45;7.85;;;4.35;;
30185;SDS011;31152;49.190;8.122;2023-08-21T10:57:16;5.32;;;4.30;;
30185;SDS011;31152;49.190;8.122;2023-08-21T10:59:53;13.10;;;5.03;;
30185;SDS011;31152;49.190;8.122;2023-08-21T11:02:22;9.27;;;4.65;;
30185;SDS011;31152;49.190;8.122;2023-08-21T11:04:50;7.28;;;4.10;;
30185;SDS011;31152;49.190;8.122;2023-08-21T11:07:18;12.45;;;4.90;;
30185;SDS011;31152;49.190;8.122;2023-08-21T11:09:45;7.82;;;4.32;;
30185;SDS011;31152;49.190;8.122;2023-08-21T11:12:15;9.27;;;4.47;;
30185;SDS011;31152;49.190;8.122;2023-08-21T11:14:43;11.57;;;5.13;;
30185;SDS011;31152;49.190;8.122;2023-08-21T11:17:10;6.30;;;4.60;;
30185;SDS011;31152;49.190;8.122;2023-08-21T11:19:37;8.05;;;5.13;;
30185;SDS011;31152;49.190;8.122;2023-08-21T11:22:05;7.00;;;5.28;;
30185;SDS011;31152;49.190;8.122;2023-08-21T11:24:48;7.03;;;4.80;;
30185;SDS011;31152;49.190;8.122;2023-08-21T11:27:16;8.05;;;5.30;;
30185;SDS011;31152;49.190;8.122;2023-08-21T11:29:48;8.93;;;4.53;;
30185;SDS011;31152;49.190;8.122;2023-08-21T11:32:20;6.60;;;4.82;;
30185;SDS011;31152;49.190;8.122;2023-08-21T11:34:52;12.93;;;5.00;;
30185;SDS011;31152;49.190;8.122;2023-08-21T11:37:21;21.10;;;5.32;;
30185;SDS011;31152;49.190;8.122;2023-08-21T11:39:51;9.23;;;4.70;;
30185;SDS011;31152;49.190;8.122;2023-08-21T11:42:18;10.80;;;4.72;;
30185;SDS011;31152;49.190;8.122;2023-08-21T11:44:48;8.02;;;4.35;;
30185;SDS011;31152;49.190;8.122;2023-08-21T11:47:21;6.97;;;4.43;;
30185;SDS011;31152;49.190;8.122;2023-08-21T11:49:50;6.10;;;4.97;;
30185;SDS011;31152;49.190;8.122;2023-08-21T11:52:18;9.27;;;4.60;;
30185;SDS011;31152;49.190;8.122;2023-08-21T11:54:51;8.25;;;4.43;;
30185;SDS011;31152;49.190;8.122;2023-08-21T11:57:22;6.35;;;4.13;;
30185;SDS011;31152;49.190;8.122;2023-08-21T11:59:50;7.00;;;4.50;;
30185;SDS011;31152;49.190;8.122;2023-08-21T12:05:04;9.93;;;4.80;;
30185;SDS011;31152;49.190;8.122;2023-08-21T12:07:32;10.77;;;4.53;;
30185;SDS011;31152;49.190;8.122;2023-08-21T12:10:00;8.07;;;4.30;;
30185;SDS011;31152;49.190;8.122;2023-08-21T12:12:28;6.05;;;3.60;;
30185;SDS011;31152;49.190;8.122;2023-08-21T12:14:55;9.10;;;4.50;;
30185;SDS011;31152;49.190;8.122;2023-08-21T12:17:22;5.75;;;4.15;;
30185;SDS011;31152;49.190;8.122;2023-08-21T12:19:49;11.30;;;4.30;;
30185;SDS011;31152;49.190;8.122;2023-08-21T12:22:16;7.25;;;4.35;;
30185;SDS011;31152;49.190;8.122;2023-08-21T12:24:45;6.80;;;3.88;;
30185;SDS011;31152;49.190;8.122;2023-08-21T12:27:11;7.30;;;4.00;;
30185;SDS011;31152;49.190;8.122;2023-08-21T12:29:38;8.93;;;4.38;;
30185;SDS011;31152;49.190;8.122;2023-08-21T12:32:06;8.13;;;3.95;;
30185;SDS011;31152;49.190;8.122;2023-08-21T12:34:33;5.90;;;4.10;;
30185;SDS011;31152;49.190;8.122;2023-08-21T12:37:00;6.28;;;4.07;;
30185;SDS011;31152;49.190;8.122;2023-08-21T12:39:27;7.35;;;4.18;;
30185;SDS011;31152;49.190;8.122;2023-08-21T12:41:54;4.45;;;3.92;;
30185;SDS011;31152;49.190;8.122;2023-08-21T12:44:23;7.30;;;3.90;;
30185;SDS011;31152;49.190;8.122;2023-08-21T12:46:49;5.10;;;4.00;;
30185;SDS011;31152;49.190;8.122;2023-08-21T12:49:17;5.03;;;3.88;;
30185;SDS011;31152;49.190;8.122;2023-08-21T12:51:46;6.40;;;3.83;;
30185;SDS011;31152;49.190;8.122;2023-08-21T12:54:13;6.45;;;3.85;;
30185;SDS011;31152;49.190;8.122;2023-08-21T12:56:40;7.47;;;4.10;;
30185;SDS011;31152;49.190;8.122;2023-08-21T12:59:07;7.55;;;4.50;;
30185;SDS011;31152;49.190;8.122;2023-08-21T13:01:34;9.25;;;4.47;;
30185;SDS011;31152;49.190;8.122;2023-08-21T13:04:01;7.15;;;4.05;;
30185;SDS011;31152;49.190;8.122;2023-08-21T13:06:29;5.85;;;4.57;;
30185;SDS011;31152;49.190;8.122;2023-08-21T13:08:56;5.80;;;3.97;;
30185;SDS011;31152;49.190;8.122;2023-08-21T13:11:23;7.07;;;4.15;;
30185;SDS011;31152;49.190;8.122;2023-08-21T13:13:49;8.98;;;4.47;;
30185;SDS011;31152;49.190;8.122;2023-08-21T13:16:16;6.75;;;4.40;;
30185;SDS011;31152;49.190;8.122;2023-08-21T13:18:45;8.52;;;3.90;;
30185;SDS011;31152;49.190;8.122;2023-08-21T13:21:12;7.38;;;4.03;;
30185;SDS011;31152;49.190;8.122;2023-08-21T13:23:39;5.88;;;3.97;;
30185;SDS011;31152;49.190;8.122;2023-08-21T13:26:08;5.78;;;4.18;;
30185;SDS011;31152;49.190;8.122;2023-08-21T13:28:37;10.98;;;4.40;;
30185;SDS011;31152;49.190;8.122;2023-08-21T13:31:04;4.85;;;4.25;;
30185;SDS011;31152;49.190;8.122;2023-08-21T13:33:43;8.52;;;4.47;;
30185;SDS011;31152;49.190;8.122;2023-08-21T13:36:12;4.82;;;4.03;;
30185;SDS011;31152;49.190;8.122;2023-08-21T13:38:40;6.05;;;4.07;;
30185;SDS011;31152;49.190;8.122;2023-08-21T13:41:07;8.98;;;4.30;;
30185;SDS011;31152;49.190;8.122;2023-08-21T13:43:34;6.97;;;3.95;;
30185;SDS011;31152;49.190;8.122;2023-08-21T13:46:01;7.85;;;3.90;;
30185;SDS011;31152;49.190;8.122;2023-08-21T13:48:32;5.80;;;4.32;;
30185;SDS011;31152;49.190;8.122;2023-08-21T13:51:01;7.15;;;4.53;;
30185;SDS011;31152;49.190;8.122;2023-08-21T13:53:28;7.38;;;4.00;;
30185;SDS011;31152;49.190;8.122;2023-08-21T13:55:57;10.80;;;4.47;;
30185;SDS011;31152;49.190;8.122;2023-08-21T13:58:23;5.13;;;3.78;;
30185;SDS011;31152;49.190;8.122;2023-08-21T14:00:52;9.05;;;4.20;;
30185;SDS011;31152;49.190;8.122;2023-08-21T14:03:20;6.90;;;4.40;;
30185;SDS011;31152;49.190;8.122;2023-08-21T14:05:46;5.70;;;4.15;;
30185;SDS011;31152;49.190;8.122;2023-08-21T14:08:15;8.43;;;4.43;;
30185;SDS011;31152;49.190;8.122;2023-08-21T14:10:42;6.40;;;4.10;;
30185;SDS011;31152;49.190;8.122;2023-08-21T14:13:09;7.97;;;3.92;;
30185;SDS011;31152;49.190;8.122;2023-08-21T14:15:36;8.88;;;3.78;;
30185;SDS011;31152;49.190;8.122;2023-08-21T14:18:05;5.25;;;4.15;;
30185;SDS011;31152;49.190;8.122;2023-08-21T14:20:37;8.05;;;4.00;;
30185;SDS011;31152;49.190;8.122;2023-08-21T14:23:04;11.05;;;4.45;;
30185;SDS011;31152;49.190;8.122;2023-08-21T14:25:31;10.73;;;4.25;;
30185;SDS011;31152;49.190;8.122;2023-08-21T14:28:00;12.05;;;3.90;;
30185;SDS011;31152;49.190;8.122;2023-08-21T14:30:27;7.95;;;4.00;;
30185;SDS011;31152;49.190;8.122;2023-08-21T14:32:54;9.38;;;4.32;;
30185;SDS011;31152;49.190;8.122;2023-08-21T14:35:21;4.72;;;4.25;;
30185;SDS011;31152;49.190;8.122;2023-08-21T14:37:48;6.35;;;3.78;;
30185;SDS011;31152;49.190;8.122;2023-08-21T14:40:15;8.27;;;3.83;;
30185;SDS011;31152;49.190;8.122;2023-08-21T14:42:42;7.82;;;4.03;;
30185;SDS011;31152;49.190;8.122;2023-08-21T14:45:09;4.97;;;3.58;;
30185;SDS011;31152;49.190;8.122;2023-08-21T14:47:39;6.15;;;3.83;;
30185;SDS011;31152;49.190;8.122;2023-08-21T14:50:06;10.20;;;4.32;;
30185;SDS011;31152;49.190;8.122;2023-08-21T14:52:36;5.18;;;3.67;;
30185;SDS011;31152;49.190;8.122;2023-08-21T14:55:03;9.05;;;3.30;;
30185;SDS011;31152;49.190;8.122;2023-08-21T14:57:30;3.22;;;2.95;;
30185;SDS011;31152;49.190;8.122;2023-08-21T14:59:57;6.03;;;3.38;;
30185;SDS011;31152;49.190;8.122;2023-08-21T15:02:24;7.68;;;3.80;;
30185;SDS011;31152;49.190;8.122;2023-08-21T15:04:53;7.43;;;3.70;;
30185;SDS011;31152;49.190;8.122;2023-08-21T15:07:20;9.38;;;4.10;;